Time;durP1;ratioP1;P1;durP2;ratioP2;P2;SDS_P1;SDS_P2;PMS_P1;PMS_P2;Temp;Humidity;BMP_temperature;BMP_pressure;BME280_temperature;BME280_humidity;BME280_pressure;Samples;Min_cycle;Max_cycle;Signal;HPM_P1;HPM_P2
2022/06/10 00:00:18;;;;;;;;;;;15.20;99.90;;;;;;5115836;28;20006;-79
2022/06/10 00:02:44;;;;;;;;;;;15.20;99.90;;;;;;5116209;28;19912;-78
2022/06/10 00:05:11;;;;;;;;;;;15.20;99.90;;;;;;5115642;28;19961;-77
2022/06/10 00:07:37;;;;;;;;;;;15.10;99.90;;;;;;5116196;28;19911;-78
2022/06/10 00:10:03;;;;;;;;;;;15.10;99.90;;;;;;5115651;28;20409;-77
2022/06/10 00:12:28;;;;;;;;;;;15.10;99.90;;;;;;5116030;28;19907;-77
2022/06/10 00:14:54;;;;;;;;;;;15.10;99.90;;;;;;5128284;28;19919;-78
2022/06/10 00:17:19;;;;;;;;;;;15.10;99.90;;;;;;5131354;28;19915;-77
2022/06/10 00:19:45;;;;;;;;;;;15.00;99.90;;;;;;5115710;28;19919;-77
2022/06/10 00:22:10;;;;;;;;;;;15.00;99.90;;;;;;5115564;28;19922;-77
2022/06/10 00:24:36;;;;;;;;;;;14.90;99.90;;;;;;5115891;28;19998;-78
2022/06/10 00:27:02;;;;;;;;;;;14.90;99.90;;;;;;5115364;28;19923;-78
2022/06/10 00:29:27;;;;;;;;;;;14.90;99.90;;;;;;5115847;28;19911;-77
2022/06/10 00:31:53;;;;;;;;;;;14.90;99.90;;;;;;5116042;28;19908;-78
2022/06/10 00:34:19;;;;;;;;;;;14.90;99.90;;;;;;5115258;28;19960;-77
2022/06/10 00:36:45;;;;;;;;;;;14.90;99.90;;;;;;5115560;28;19907;-77
2022/06/10 00:39:10;;;;;;;;;;;15.00;99.90;;;;;;5115129;28;19915;-78
2022/06/10 00:41:40;;;;;;;;;;;14.90;99.90;;;;;;5115627;28;19908;-78
2022/06/10 00:44:25;;;;;;;;;;;14.90;99.90;;;;;;5115074;28;19908;-77
2022/06/10 00:46:51;;;;;;;;;;;14.80;99.90;;;;;;5115286;28;19999;-78
2022/06/10 00:49:16;;;;;;;;;;;14.80;99.90;;;;;;5115262;28;20397;-78
2022/06/10 00:51:53;;;;;;;;;;;14.80;99.90;;;;;;5114139;28;20291;-77
2022/06/10 00:54:36;;;;;;;;;;;14.80;99.90;;;;;;5114564;28;20356;-78
2022/06/10 00:57:13;;;;;;;;;;;14.80;99.90;;;;;;5114668;28;19914;-77
2022/06/10 00:59:40;;;;;;;;;;;14.80;99.90;;;;;;5115204;28;19907;-78
2022/06/10 01:02:08;;;;;;;;;;;14.70;99.90;;;;;;5114709;28;19998;-77
2022/06/10 01:04:34;;;;;;;;;;;14.70;99.90;;;;;;5114982;28;19912;-77
2022/06/10 01:06:59;;;;;;;;;;;14.70;99.90;;;;;;5114903;28;20009;-78
2022/06/10 01:09:27;;;;;;;;;;;14.70;99.90;;;;;;5115071;28;19919;-78
2022/06/10 01:12:10;;;;;;;;;;;14.70;99.90;;;;;;5114976;28;20337;-78
2022/06/10 01:14:48;;;;;;;;;;;14.60;99.90;;;;;;5114835;28;19962;-78
2022/06/10 01:17:24;;;;;;;;;;;14.60;99.90;;;;;;5114294;28;19912;-78
2022/06/10 01:20:06;;;;;;;;;;;14.60;99.90;;;;;;5114625;28;19973;-78
2022/06/10 01:22:58;;;;;;;;;;;14.50;99.90;;;;;;5114425;28;20352;-78
2022/06/10 01:25:42;;;;;;;;;;;14.60;99.90;;;;;;5095896;28;19912;-78
2022/06/10 01:28:26;;;;;;;;;;;14.50;99.90;;;;;;5113898;28;19912;-77
2022/06/10 01:30:58;;;;;;;;;;;14.50;99.90;;;;;;5114519;28;19914;-78
2022/06/10 01:33:24;;;;;;;;;;;14.50;99.90;;;;;;5114084;28;19919;-79
2022/06/10 01:35:55;;;;;;;;;;;14.40;99.90;;;;;;5114399;28;19908;-78
2022/06/10 01:38:24;;;;;;;;;;;14.50;99.90;;;;;;5113938;28;19908;-78
2022/06/10 01:40:53;;;;;;;;;;;14.40;99.90;;;;;;5114402;28;19951;-78
2022/06/10 01:43:39;;;;;;;;;;;14.50;99.90;;;;;;5113925;28;19916;-78
2022/06/10 01:46:07;;;;;;;;;;;14.40;99.90;;;;;;5113857;28;19919;-77
2022/06/10 01:49:03;;;;;;;;;;;14.40;99.90;;;;;;5114009;28;19912;-77
2022/06/10 01:51:31;;;;;;;;;;;14.40;99.90;;;;;;5041111;28;19909;-77
2022/06/10 01:54:08;;;;;;;;;;;14.40;99.90;;;;;;5113818;28;20044;-77
2022/06/10 01:56:38;;;;;;;;;;;14.30;99.90;;;;;;5114301;28;20442;-78
2022/06/10 01:59:08;;;;;;;;;;;14.30;99.90;;;;;;5113469;28;19912;-77
2022/06/10 02:01:45;;;;;;;;;;;14.30;99.90;;;;;;5113917;28;19912;-77
2022/06/10 02:04:13;;;;;;;;;;;14.20;99.90;;;;;;5113044;28;19908;-77
2022/06/10 02:06:44;;;;;;;;;;;14.20;99.90;;;;;;5114010;28;20305;-77
2022/06/10 02:09:13;;;;;;;;;;;14.20;99.90;;;;;;5113294;28;19915;-77
2022/06/10 02:11:42;;;;;;;;;;;14.20;99.90;;;;;;5113656;28;19915;-77
2022/06/10 02:14:17;;;;;;;;;;;14.10;99.90;;;;;;5113456;28;19911;-77
2022/06/10 02:16:45;;;;;;;;;;;14.10;99.90;;;;;;5113875;28;19908;-78
2022/06/10 02:19:17;;;;;;;;;;;14.10;99.90;;;;;;5113343;28;19908;-76
2022/06/10 02:21:44;;;;;;;;;;;14.10;99.90;;;;;;5113933;28;19927;-77
2022/06/10 02:24:12;;;;;;;;;;;14.10;99.90;;;;;;5113315;28;20241;-79
2022/06/10 02:26:38;;;;;;;;;;;14.10;99.90;;;;;;5113534;28;19912;-78
2022/06/10 02:29:07;;;;;;;;;;;14.10;99.90;;;;;;5113460;28;19923;-78
2022/06/10 02:31:59;;;;;;;;;;;14.10;99.90;;;;;;5113712;28;19908;-78
2022/06/10 02:34:26;;;;;;;;;;;14.10;99.90;;;;;;5108891;28;19915;-77
2022/06/10 02:37:06;;;;;;;;;;;14.00;99.90;;;;;;5113597;28;19985;-78
2022/06/10 02:39:32;;;;;;;;;;;14.00;99.90;;;;;;5113710;28;20006;-78
2022/06/10 02:42:12;;;;;;;;;;;14.00;99.90;;;;;;5113276;28;20325;-78
2022/06/10 02:44:38;;;;;;;;;;;14.00;99.90;;;;;;5113846;28;19908;-78
2022/06/10 02:47:17;;;;;;;;;;;14.00;99.90;;;;;;5113469;28;19983;-78
2022/06/10 02:49:42;;;;;;;;;;;14.00;99.90;;;;;;5113642;28;19919;-78
2022/06/10 02:52:11;;;;;;;;;;;14.00;99.90;;;;;;5113174;28;19907;-77
2022/06/10 02:54:38;;;;;;;;;;;14.00;99.90;;;;;;5113133;28;19923;-78
2022/06/10 02:57:17;;;;;;;;;;;13.90;99.90;;;;;;5113532;28;19915;-78
2022/06/10 03:02:44;;;;;;;;;;;14.00;99.90;;;;;;5113059;28;19915;-78
2022/06/10 03:05:17;;;;;;;;;;;14.00;99.90;;;;;;5112992;28;20353;-78
2022/06/10 03:07:52;;;;;;;;;;;14.00;99.90;;;;;;5113282;28;20280;-78
2022/06/10 03:10:24;;;;;;;;;;;14.00;99.90;;;;;;5112924;28;19996;-79
2022/06/10 03:13:09;;;;;;;;;;;14.00;99.90;;;;;;5113378;28;19915;-78
2022/06/10 03:15:37;;;;;;;;;;;13.90;99.90;;;;;;5115709;28;19908;-78
2022/06/10 03:18:14;;;;;;;;;;;13.90;99.90;;;;;;5116838;28;20348;-78
2022/06/10 03:20:49;;;;;;;;;;;13.90;99.90;;;;;;5116691;28;20003;-78
2022/06/10 03:23:22;;;;;;;;;;;13.90;99.90;;;;;;5116356;28;20280;-78
2022/06/10 03:25:51;;;;;;;;;;;13.90;99.90;;;;;;5117182;28;19911;-78
2022/06/10 03:28:26;;;;;;;;;;;13.90;99.90;;;;;;5116546;28;19918;-78
2022/06/10 03:31:03;;;;;;;;;;;13.80;99.90;;;;;;5116859;28;19935;-78
2022/06/10 03:33:37;;;;;;;;;;;13.80;99.90;;;;;;5116388;28;19950;-78
2022/06/10 03:36:05;;;;;;;;;;;13.80;99.90;;;;;;5116796;28;19998;-78
2022/06/10 03:38:31;;;;;;;;;;;13.80;99.90;;;;;;5116354;28;19907;-79
2022/06/10 03:40:58;;;;;;;;;;;13.80;99.90;;;;;;5116659;28;19907;-78
2022/06/10 03:43:24;;;;;;;;;;;13.80;99.90;;;;;;5116124;28;20300;-78
2022/06/10 03:45:52;;;;;;;;;;;13.90;99.90;;;;;;5116821;28;19947;-78
2022/06/10 03:48:19;;;;;;;;;;;13.90;99.90;;;;;;5116457;28;19951;-78
2022/06/10 03:50:46;;;;;;;;;;;13.90;99.90;;;;;;5116474;28;19915;-78
2022/06/10 03:53:13;;;;;;;;;;;13.80;99.90;;;;;;5116084;28;19962;-78
2022/06/10 03:55:40;;;;;;;;;;;13.80;99.90;;;;;;5116027;28;20448;-78
2022/06/10 03:58:05;;;;;;;;;;;13.80;99.90;;;;;;5116019;28;20285;-78
2022/06/10 04:00:31;;;;;;;;;;;13.80;99.90;;;;;;5115866;28;19964;-79
2022/06/10 04:02:56;;;;;;;;;;;13.70;99.90;;;;;;5116366;28;20398;-78
2022/06/10 04:05:22;;;;;;;;;;;13.80;99.90;;;;;;5115645;28;20345;-78
2022/06/10 04:07:47;;;;;;;;;;;13.70;99.90;;;;;;5115973;28;19911;-78
2022/06/10 04:10:19;;;;;;;;;;;13.80;99.90;;;;;;5115825;28;19915;-78
2022/06/10 04:12:45;;;;;;;;;;;13.70;99.90;;;;;;5116154;28;19955;-78
2022/06/10 04:15:14;;;;;;;;;;;13.70;99.90;;;;;;5116066;28;19908;-79
2022/06/10 04:17:41;;;;;;;;;;;13.70;99.90;;;;;;5115842;28;19907;-78
2022/06/10 04:20:07;;;;;;;;;;;13.80;99.90;;;;;;5116185;28;19972;-79
2022/06/10 04:22:32;;;;;;;;;;;13.80;99.90;;;;;;5115520;28;20331;-78
2022/06/10 04:24:58;;;;;;;;;;;13.90;99.90;;;;;;5097450;28;20428;-78
2022/06/10 04:27:23;;;;;;;;;;;13.90;99.90;;;;;;5115151;28;19923;-78
2022/06/10 04:29:49;;;;;;;;;;;13.80;99.90;;;;;;5115467;28;19911;-79
2022/06/10 04:32:14;;;;;;;;;;;13.90;99.90;;;;;;5115020;28;20263;-79
2022/06/10 04:34:40;;;;;;;;;;;13.90;99.90;;;;;;5115706;28;19908;-79
2022/06/10 04:37:06;;;;;;;;;;;13.90;99.90;;;;;;5115624;28;19914;-80
2022/06/10 04:39:31;;;;;;;;;;;13.90;99.90;;;;;;5115487;28;19947;-78
2022/06/10 04:41:57;;;;;;;;;;;13.90;99.90;;;;;;5115585;28;19908;-79
2022/06/10 04:44:22;;;;;;;;;;;14.00;99.90;;;;;;5114804;28;19908;-79
2022/06/10 04:46:48;;;;;;;;;;;14.00;99.90;;;;;;5115431;28;20031;-78
2022/06/10 04:49:14;;;;;;;;;;;14.10;99.90;;;;;;5116658;28;19923;-76
2022/06/10 04:51:39;;;;;;;;;;;14.20;99.90;;;;;;5115803;28;19908;-78
2022/06/10 04:54:07;;;;;;;;;;;14.20;99.90;;;;;;5115364;28;20272;-79
2022/06/10 04:56:33;;;;;;;;;;;14.30;99.90;;;;;;5114809;28;19915;-78
2022/06/10 04:58:59;;;;;;;;;;;14.40;99.90;;;;;;5115224;28;19943;-78
2022/06/10 05:01:24;;;;;;;;;;;14.50;99.90;;;;;;5115063;28;19908;-79
2022/06/10 05:03:50;;;;;;;;;;;14.50;99.90;;;;;;5115120;28;19908;-79
2022/06/10 05:06:15;;;;;;;;;;;14.60;99.90;;;;;;5114543;28;20303;-77
2022/06/10 05:08:41;;;;;;;;;;;14.70;99.90;;;;;;5114976;28;19912;-78
2022/06/10 05:11:09;;;;;;;;;;;14.80;99.90;;;;;;5115177;28;19960;-78
2022/06/10 05:13:36;;;;;;;;;;;14.80;99.90;;;;;;5114201;28;20549;-78
2022/06/10 05:16:03;;;;;;;;;;;14.80;99.90;;;;;;5114757;28;19915;-79
2022/06/10 05:18:30;;;;;;;;;;;14.90;99.90;;;;;;5114414;28;19908;-79
2022/06/10 05:20:56;;;;;;;;;;;15.00;99.90;;;;;;5114612;28;19926;-78
2022/06/10 05:23:22;;;;;;;;;;;15.00;99.90;;;;;;5114247;28;19912;-78
2022/06/10 05:25:47;;;;;;;;;;;15.10;99.90;;;;;;5114419;28;20364;-79
2022/06/10 05:28:13;;;;;;;;;;;15.10;99.90;;;;;;5114977;28;19912;-79
2022/06/10 05:30:39;;;;;;;;;;;15.20;99.90;;;;;;5114169;28;20348;-79
2022/06/10 05:33:05;;;;;;;;;;;15.20;99.90;;;;;;5114951;28;20011;-79
2022/06/10 05:35:31;;;;;;;;;;;15.30;99.90;;;;;;5116029;28;19915;-79
2022/06/10 05:37:57;;;;;;;;;;;15.40;99.90;;;;;;5114834;28;20357;-78
2022/06/10 05:40:23;;;;;;;;;;;15.50;99.90;;;;;;5113971;28;19908;-79
2022/06/10 05:42:49;;;;;;;;;;;15.60;99.90;;;;;;5114711;28;19950;-78
2022/06/10 05:45:17;;;;;;;;;;;15.80;99.90;;;;;;5114308;28;19943;-78
2022/06/10 05:47:44;;;;;;;;;;;16.00;99.90;;;;;;5114149;28;20006;-78
2022/06/10 05:50:15;;;;;;;;;;;16.10;99.90;;;;;;5114312;28;19914;-79
2022/06/10 05:52:41;;;;;;;;;;;16.00;99.90;;;;;;5113493;28;20284;-78
2022/06/10 05:55:09;;;;;;;;;;;16.00;99.90;;;;;;5114095;28;19908;-79
2022/06/10 05:57:34;;;;;;;;;;;15.80;99.90;;;;;;5113312;28;19923;-78
2022/06/10 06:00:00;;;;;;;;;;;15.80;99.90;;;;;;5113994;28;19908;-78
2022/06/10 06:02:26;;;;;;;;;;;15.70;99.90;;;;;;5113558;28;19915;-79
2022/06/10 06:04:52;;;;;;;;;;;15.60;99.90;;;;;;5113981;28;19909;-79
2022/06/10 06:07:19;;;;;;;;;;;15.60;99.90;;;;;;5113885;28;19934;-77
2022/06/10 06:09:45;;;;;;;;;;;15.60;99.90;;;;;;5113911;28;19912;-77
2022/06/10 06:12:11;;;;;;;;;;;15.50;99.90;;;;;;5114302;28;20306;-78
2022/06/10 06:14:36;;;;;;;;;;;15.60;99.90;;;;;;5113458;28;19908;-78
2022/06/10 06:17:03;;;;;;;;;;;15.70;99.90;;;;;;5113706;28;19986;-79
2022/06/10 06:19:29;;;;;;;;;;;15.70;99.90;;;;;;5123408;28;19947;-78
2022/06/10 06:21:55;;;;;;;;;;;15.70;99.90;;;;;;5129610;28;19908;-78
2022/06/10 06:24:21;;;;;;;;;;;15.70;99.90;;;;;;5115455;28;19953;-78
2022/06/10 06:26:47;;;;;;;;;;;15.70;99.90;;;;;;5114068;28;20372;-78
2022/06/10 06:29:12;;;;;;;;;;;15.80;99.90;;;;;;5113740;28;19941;-78
2022/06/10 06:31:38;;;;;;;;;;;15.80;99.90;;;;;;5113298;28;19955;-78
2022/06/10 06:34:04;;;;;;;;;;;15.90;99.90;;;;;;5113636;28;19918;-77
2022/06/10 06:36:36;;;;;;;;;;;16.10;99.90;;;;;;5113132;28;19908;-77
2022/06/10 06:39:04;;;;;;;;;;;16.30;99.90;;;;;;5113708;28;19943;-77
2022/06/10 06:41:30;;;;;;;;;;;16.40;99.90;;;;;;5113063;28;20010;-77
2022/06/10 06:43:55;;;;;;;;;;;16.50;99.90;;;;;;5113844;28;20361;-78
2022/06/10 06:46:21;;;;;;;;;;;16.70;99.90;;;;;;5113209;28;19915;-75
2022/06/10 06:48:46;;;;;;;;;;;16.80;99.90;;;;;;5114537;28;20318;-78
2022/06/10 06:51:12;;;;;;;;;;;16.90;99.90;;;;;;5117418;28;19908;-78
2022/06/10 06:53:38;;;;;;;;;;;17.00;99.90;;;;;;5117159;28;19950;-79
2022/06/10 06:56:05;;;;;;;;;;;17.10;99.90;;;;;;5117732;28;19915;-79
2022/06/10 06:58:30;;;;;;;;;;;17.20;99.90;;;;;;5117020;28;19907;-78
2022/06/10 07:00:56;;;;;;;;;;;17.30;99.90;;;;;;5117205;28;20321;-78
2022/06/10 07:03:22;;;;;;;;;;;17.40;99.90;;;;;;5117178;28;19929;-78
2022/06/10 07:05:47;;;;;;;;;;;17.40;99.90;;;;;;5117178;28;19912;-78
2022/06/10 07:08:13;;;;;;;;;;;17.40;99.90;;;;;;5117387;28;19911;-78
2022/06/10 07:10:39;;;;;;;;;;;17.40;99.90;;;;;;5117309;28;19908;-77
2022/06/10 07:13:05;;;;;;;;;;;17.50;99.90;;;;;;5124889;28;19957;-77
2022/06/10 07:15:30;;;;;;;;;;;17.70;99.90;;;;;;5136411;28;19908;-77
2022/06/10 07:17:57;;;;;;;;;;;17.60;99.90;;;;;;5122973;28;20002;-79
2022/06/10 07:20:30;;;;;;;;;;;17.70;99.90;;;;;;5116838;28;20006;-75
2022/06/10 07:22:57;;;;;;;;;;;17.70;99.90;;;;;;5116948;28;19907;-78
2022/06/10 07:25:23;;;;;;;;;;;17.80;99.90;;;;;;5116801;28;20016;-78
2022/06/10 07:27:49;;;;;;;;;;;17.80;99.90;;;;;;5116956;28;19919;-78
2022/06/10 07:30:16;;;;;;;;;;;17.90;99.90;;;;;;5116608;28;19908;-78
2022/06/10 07:32:42;;;;;;;;;;;18.00;99.90;;;;;;5116094;28;20280;-78
2022/06/10 07:35:08;;;;;;;;;;;18.20;99.90;;;;;;5117038;28;19908;-78
2022/06/10 07:37:33;;;;;;;;;;;18.30;99.90;;;;;;5116373;28;19919;-78
2022/06/10 07:39:59;;;;;;;;;;;18.50;99.90;;;;;;5116595;28;19908;-79
2022/06/10 07:42:24;;;;;;;;;;;18.60;99.90;;;;;;5116294;28;19908;-76
2022/06/10 07:44:50;;;;;;;;;;;18.60;99.90;;;;;;5116274;28;20006;-79
2022/06/10 07:47:16;;;;;;;;;;;18.50;99.90;;;;;;5116441;28;19916;-78
2022/06/10 07:49:42;;;;;;;;;;;18.60;99.90;;;;;;5115746;28;19964;-78
2022/06/10 07:52:09;;;;;;;;;;;18.70;99.90;;;;;;5116119;28;19912;-78
2022/06/10 07:54:35;;;;;;;;;;;18.70;99.90;;;;;;5115842;28;19907;-79
2022/06/10 07:57:01;;;;;;;;;;;18.70;99.90;;;;;;5116478;28;19908;-78
2022/06/10 07:59:27;;;;;;;;;;;18.80;99.90;;;;;;5116034;28;19912;-78
2022/06/10 08:01:52;;;;;;;;;;;18.70;99.90;;;;;;5115683;28;19908;-78
2022/06/10 08:04:18;;;;;;;;;;;18.80;99.90;;;;;;5116444;28;19908;-79
2022/06/10 08:06:46;;;;;;;;;;;18.90;99.90;;;;;;5115753;28;19970;-79
2022/06/10 08:09:11;;;;;;;;;;;18.80;99.90;;;;;;5116119;28;20350;-79
2022/06/10 08:11:38;;;;;;;;;;;18.90;99.90;;;;;;5115980;28;19947;-79
2022/06/10 08:14:04;;;;;;;;;;;18.90;99.90;;;;;;5115850;28;19915;-78
2022/06/10 08:16:30;;;;;;;;;;;19.00;99.90;;;;;;5115524;28;19908;-77
2022/06/10 08:18:56;;;;;;;;;;;18.90;99.90;;;;;;5097482;28;19915;-80
2022/06/10 08:24:06;;;;;;;;;;;18.90;99.90;;;;;;5115622;28;19914;-79
2022/06/10 08:26:32;;;;;;;;;;;19.00;99.90;;;;;;5115225;28;19912;-78
2022/06/10 08:28:59;;;;;;;;;;;19.10;99.90;;;;;;5115650;28;19912;-78
2022/06/10 08:31:24;;;;;;;;;;;19.10;99.90;;;;;;5115665;28;19919;-78
2022/06/10 08:33:50;;;;;;;;;;;19.20;99.90;;;;;;5115088;28;19927;-78
2022/06/10 08:36:16;;;;;;;;;;;19.10;99.90;;;;;;5115268;28;20317;-78
2022/06/10 08:38:42;;;;;;;;;;;19.10;99.90;;;;;;5115496;28;19914;-78
2022/06/10 08:41:12;;;;;;;;;;;19.10;99.90;;;;;;5115372;28;19930;-79
2022/06/10 08:43:38;;;;;;;;;;;19.20;99.90;;;;;;5114932;28;20015;-77
2022/06/10 08:46:27;;;;;;;;;;;19.30;99.90;;;;;;5115368;28;20011;-79
2022/06/10 08:49:16;;;;;;;;;;;19.30;99.90;;;;;;5076445;28;20015;-78
2022/06/10 08:52:01;;;;;;;;;;;19.20;99.90;;;;;;5114869;28;20340;-79
2022/06/10 08:54:43;;;;;;;;;;;19.30;99.90;;;;;;5115272;28;20329;-79
2022/06/10 08:57:28;;;;;;;;;;;19.40;99.90;;;;;;5115203;28;19915;-79
2022/06/10 08:59:55;;;;;;;;;;;19.40;99.90;;;;;;5114632;28;19908;-79
2022/06/10 09:02:29;;;;;;;;;;;19.30;99.90;;;;;;5114933;28;19960;-79
2022/06/10 09:05:05;;;;;;;;;;;19.40;99.90;;;;;;5114869;28;19912;-79
2022/06/10 09:07:36;;;;;;;;;;;19.50;99.90;;;;;;5114466;28;19918;-78
2022/06/10 09:10:04;;;;;;;;;;;19.60;99.90;;;;;;5114715;28;19912;-79
2022/06/10 09:12:58;;;;;;;;;;;19.60;99.90;;;;;;5113849;28;19908;-76
2022/06/10 09:15:24;;;;;;;;;;;19.70;99.90;;;;;;5114984;28;19908;-78
2022/06/10 09:17:53;;;;;;;;;;;19.80;99.90;;;;;;5114232;28;20444;-78
2022/06/10 09:20:23;;;;;;;;;;;20.00;99.90;;;;;;5114584;28;20300;-78
2022/06/10 09:22:51;;;;;;;;;;;20.10;99.90;;;;;;5114110;28;19965;-78
2022/06/10 09:25:24;;;;;;;;;;;20.20;99.90;;;;;;5114597;28;20016;-78
2022/06/10 09:27:53;;;;;;;;;;;20.20;99.90;;;;;;5114125;28;19922;-79
2022/06/10 09:30:21;;;;;;;;;;;20.20;99.90;;;;;;5114416;28;19908;-79
2022/06/10 09:32:59;;;;;;;;;;;20.10;99.90;;;;;;5113829;28;20349;-78
2022/06/10 09:35:43;;;;;;;;;;;20.10;99.90;;;;;;5115889;28;19929;-78
2022/06/10 09:38:20;;;;;;;;;;;20.20;99.90;;;;;;5114342;28;20259;-79
2022/06/10 09:41:04;;;;;;;;;;;20.10;99.90;;;;;;5113726;28;20417;-78
2022/06/10 09:43:56;;;;;;;;;;;19.90;99.90;;;;;;5114124;28;19907;-79
2022/06/10 09:46:28;;;;;;;;;;;19.70;99.90;;;;;;5064473;28;20308;-79
2022/06/10 09:48:54;;;;;;;;;;;19.60;99.90;;;;;;5113405;28;19961;-79
2022/06/10 09:51:23;;;;;;;;;;;19.70;99.90;;;;;;5113941;28;19912;-79
2022/06/10 09:53:48;;;;;;;;;;;19.60;99.90;;;;;;5113479;28;19951;-78
2022/06/10 09:56:29;;;;;;;;;;;19.60;99.90;;;;;;5113550;28;19911;-78
2022/06/10 09:59:01;;;;;;;;;;;19.50;99.90;;;;;;5113525;28;19908;-79
2022/06/10 10:01:26;;;;;;;;;;;19.70;99.90;;;;;;5095685;28;19957;-79
2022/06/10 10:03:59;;;;;;;;;;;20.00;99.90;;;;;;5113674;28;19954;-78
2022/06/10 10:06:29;;;;;;;;;;;20.30;99.90;;;;;;5113905;28;19912;-79
2022/06/10 10:08:58;;;;;;;;;;;20.40;99.90;;;;;;5113385;28;20065;-79
2022/06/10 10:11:36;;;;;;;;;;;20.30;99.90;;;;;;5113638;28;20026;-79
2022/06/10 10:14:21;;;;;;;;;;;20.20;99.90;;;;;;5113285;28;19919;-79
2022/06/10 10:16:49;;;;;;;;;;;20.20;99.90;;;;;;5113127;28;19908;-78
2022/06/10 10:19:24;;;;;;;;;;;20.20;99.90;;;;;;5113503;28;19953;-78
2022/06/10 10:21:49;;;;;;;;;;;20.20;99.90;;;;;;5114456;28;19927;-78
2022/06/10 10:24:22;;;;;;;;;;;20.30;99.90;;;;;;5113188;28;20276;-78
2022/06/10 10:26:50;;;;;;;;;;;20.40;99.90;;;;;;5113052;28;19934;-78
2022/06/10 10:29:16;;;;;;;;;;;20.50;99.90;;;;;;5121786;28;19912;-78
2022/06/10 10:31:44;;;;;;;;;;;20.40;99.90;;;;;;5129218;28;19908;-77
2022/06/10 10:34:15;;;;;;;;;;;20.30;99.90;;;;;;5115767;28;19915;-79
2022/06/10 10:36:44;;;;;;;;;;;20.20;99.90;;;;;;5113045;28;20371;-77
2022/06/10 10:39:15;;;;;;;;;;;20.10;99.90;;;;;;5113325;28;19960;-78
2022/06/10 10:41:43;;;;;;;;;;;20.20;99.90;;;;;;5112675;28;19915;-78
2022/06/10 10:44:26;;;;;;;;;;;20.60;99.90;;;;;;5113319;28;19915;-79
2022/06/10 10:47:01;;;;;;;;;;;20.90;99.90;;;;;;5112711;28;19919;-79
2022/06/10 10:49:31;;;;;;;;;;;21.00;99.90;;;;;;5112941;28;19919;-79
2022/06/10 10:51:57;;;;;;;;;;;21.10;99.90;;;;;;5112447;28;19965;-79
2022/06/10 10:54:27;;;;;;;;;;;21.00;99.90;;;;;;5113078;28;19912;-79
2022/06/10 10:56:53;;;;;;;;;;;21.10;99.90;;;;;;5112669;28;19952;-79
2022/06/10 10:59:25;;;;;;;;;;;21.20;99.90;;;;;;5113083;28;20400;-78
2022/06/10 11:01:54;;;;;;;;;;;21.10;99.90;;;;;;5112337;28;20299;-79
2022/06/10 11:04:34;;;;;;;;;;;21.20;99.90;;;;;;5113072;28;19931;-79
2022/06/10 11:07:04;;;;;;;;;;;21.30;99.90;;;;;;5112644;28;20020;-79
2022/06/10 11:09:30;;;;;;;;;;;21.30;99.90;;;;;;5113121;28;19922;-79
2022/06/10 11:11:57;;;;;;;;;;;21.30;99.90;;;;;;5112630;28;19908;-79
2022/06/10 11:14:29;;;;;;;;;;;21.40;99.90;;;;;;5113048;28;20434;-79
2022/06/10 11:17:00;;;;;;;;;;;21.40;99.90;;;;;;5112608;28;19955;-79
2022/06/10 11:19:37;;;;;;;;;;;21.30;99.90;;;;;;5112852;28;19908;-79
2022/06/10 11:22:09;;;;;;;;;;;21.20;99.90;;;;;;5113006;28;19908;-80
2022/06/10 11:24:40;;;;;;;;;;;21.30;99.90;;;;;;5112769;28;19953;-80
2022/06/10 11:27:44;;;;;;;;;;;21.20;99.90;;;;;;5112295;28;19926;-80
2022/06/10 11:30:15;;;;;;;;;;;21.30;99.90;;;;;;5029956;28;19913;-80
2022/06/10 11:32:52;;;;;;;;;;;21.30;99.90;;;;;;5029353;28;19999;-79
2022/06/10 11:35:23;;;;;;;;;;;21.30;99.90;;;;;;5030566;28;19917;-79
2022/06/10 11:37:51;;;;;;;;;;;21.20;99.90;;;;;;5032996;28;19964;-79
2022/06/10 11:40:28;;;;;;;;;;;21.10;99.90;;;;;;5033498;28;19910;-80
2022/06/10 11:42:58;;;;;;;;;;;21.30;99.90;;;;;;5033123;28;20370;-80
2022/06/10 11:45:27;;;;;;;;;;;21.30;99.90;;;;;;5033376;28;19916;-80
2022/06/10 11:47:55;;;;;;;;;;;21.30;99.90;;;;;;5033020;28;19940;-79
2022/06/10 11:50:27;;;;;;;;;;;21.20;99.90;;;;;;5033257;28;19916;-79
2022/06/10 11:53:07;;;;;;;;;;;21.00;99.90;;;;;;5033017;28;19917;-79
2022/06/10 11:55:37;;;;;;;;;;;20.90;99.90;;;;;;5033021;28;20321;-79
2022/06/10 12:01:13;;;;;;;;;;;21.30;99.90;;;;;;5074526;28;20378;-80
2022/06/10 12:04:05;;;;;;;;;;;21.30;99.90;;;;;;5115968;28;19915;-80
2022/06/10 12:06:51;;;;;;;;;;;21.50;99.90;;;;;;5111637;28;19935;-79
2022/06/10 12:09:21;;;;;;;;;;;21.40;99.90;;;;;;5115255;28;19912;-80
2022/06/10 12:11:46;;;;;;;;;;;21.50;99.90;;;;;;5115369;28;20356;-79
2022/06/10 12:14:18;;;;;;;;;;;21.40;99.90;;;;;;5115961;28;19942;-78
2022/06/10 12:16:46;;;;;;;;;;;21.30;99.90;;;;;;5115368;28;20340;-78
2022/06/10 12:19:19;;;;;;;;;;;21.00;99.90;;;;;;5115678;28;19915;-79
2022/06/10 12:21:44;;;;;;;;;;;20.60;99.90;;;;;;5115458;28;19931;-79
2022/06/10 12:24:12;;;;;;;;;;;20.50;99.90;;;;;;5115527;28;19908;-79
2022/06/10 12:26:37;;;;;;;;;;;20.40;99.90;;;;;;5115414;28;19912;-78
2022/06/10 12:29:09;;;;;;;;;;;20.00;99.90;;;;;;5115224;28;19918;-78
2022/06/10 12:31:37;;;;;;;;;;;19.60;99.90;;;;;;5097827;28;19912;-90
2022/06/10 12:34:06;;;;;;;;;;;19.10;99.90;;;;;;5097876;28;19911;-89
2022/06/10 12:36:37;;;;;;;;;;;18.20;99.90;;;;;;5116660;28;20435;-89
2022/06/10 12:39:04;;;;;;;;;;;18.00;99.90;;;;;;5097861;28;19912;-90
2022/06/10 12:41:30;;;;;;;;;;;18.00;99.90;;;;;;5097109;28;19908;-86
2022/06/10 12:43:59;;;;;;;;;;;18.00;99.90;;;;;;5114646;28;20357;-84
2022/06/10 12:46:30;;;;;;;;;;;18.40;99.90;;;;;;5114801;28;19922;-81
2022/06/10 12:48:55;;;;;;;;;;;18.60;99.90;;;;;;5114738;28;19912;-80
2022/06/10 12:51:40;;;;;;;;;;;18.80;99.90;;;;;;5115167;28;19908;-80
2022/06/10 12:54:15;;;;;;;;;;;18.80;99.90;;;;;;5115190;28;19914;-80
2022/06/10 12:56:41;;;;;;;;;;;18.90;99.90;;;;;;5131559;28;19915;-80
2022/06/10 12:59:06;;;;;;;;;;;18.80;99.90;;;;;;5128404;28;20334;-79
2022/06/10 13:01:32;;;;;;;;;;;18.80;99.90;;;;;;5116269;28;19950;-79
2022/06/10 13:04:02;;;;;;;;;;;18.90;99.90;;;;;;5115439;28;20353;-79
2022/06/10 13:06:42;;;;;;;;;;;19.00;99.90;;;;;;5114488;28;20483;-79
2022/06/10 13:09:11;;;;;;;;;;;19.00;99.90;;;;;;5114030;28;20290;-78
2022/06/10 13:11:39;;;;;;;;;;;19.20;99.90;;;;;;5114741;28;19908;-78
2022/06/10 13:14:12;;;;;;;;;;;19.20;99.90;;;;;;5114192;28;20405;-79
2022/06/10 13:16:40;;;;;;;;;;;19.30;99.90;;;;;;5115007;28;20314;-79
2022/06/10 13:19:26;;;;;;;;;;;19.40;99.90;;;;;;5114155;28;19908;-77
2022/06/10 13:21:51;;;;;;;;;;;19.20;99.90;;;;;;5114022;28;19972;-78
2022/06/10 13:24:17;;;;;;;;;;;19.10;99.90;;;;;;5114278;28;20373;-79
2022/06/10 13:26:43;;;;;;;;;;;18.80;99.90;;;;;;5114675;28;19919;-85
2022/06/10 13:29:12;;;;;;;;;;;18.50;99.90;;;;;;5114490;28;19912;-88
2022/06/10 13:31:48;;;;;;;;;;;17.90;99.90;;;;;;5115161;28;19908;-88
2022/06/10 13:34:32;;;;;;;;;;;;;;;;;;;;;
2022/06/10 13:37:13;;;;;;;;;;;16.50;99.90;;;;;;5114578;28;19932;-91
2022/06/10 13:39:39;;;;;;;;;;;16.10;99.90;;;;;;5096646;28;19943;-91
2022/06/10 13:42:05;;;;;;;;;;;16.00;99.90;;;;;;5114465;28;19912;-89
2022/06/10 13:44:33;;;;;;;;;;;16.00;99.90;;;;;;5096368;28;20344;-89
2022/06/10 13:47:00;;;;;;;;;;;16.00;99.90;;;;;;5114019;28;20007;-85
2022/06/10 13:49:45;;;;;;;;;;;16.00;99.90;;;;;;5114244;28;19911;-84
2022/06/10 13:52:29;;;;;;;;;;;15.90;99.90;;;;;;5113711;28;19908;-88
2022/06/10 13:54:56;;;;;;;;;;;16.00;99.90;;;;;;5095612;28;19912;-88
2022/06/10 13:57:39;;;;;;;;;;;15.90;99.90;;;;;;5096464;28;19930;-89
2022/06/10 14:00:07;;;;;;;;;;;16.00;99.90;;;;;;5095899;28;19908;-90
2022/06/10 14:02:36;;;;;;;;;;;16.30;99.90;;;;;;5096147;28;19914;-81
2022/06/10 14:05:03;;;;;;;;;;;16.60;99.90;;;;;;5113217;28;19911;-80
2022/06/10 14:07:36;;;;;;;;;;;16.70;99.90;;;;;;5113688;28;19912;-79
2022/06/10 14:10:14;;;;;;;;;;;16.90;99.90;;;;;;5113350;28;20029;-79
2022/06/10 14:12:40;;;;;;;;;;;16.90;99.90;;;;;;5113696;28;19907;-78
2022/06/10 14:15:13;;;;;;;;;;;16.90;99.90;;;;;;5113345;28;19908;-78
2022/06/10 14:17:46;;;;;;;;;;;16.90;99.90;;;;;;5113719;28;19915;-77
2022/06/10 14:20:14;;;;;;;;;;;16.80;99.90;;;;;;5113026;28;20056;-78
2022/06/10 14:22:40;;;;;;;;;;;16.90;99.90;;;;;;5113567;28;20406;-91
2022/06/10 14:25:12;;;;;;;;;;;16.60;99.90;;;;;;5095922;28;19960;-85
2022/06/10 14:27:39;;;;;;;;;;;16.50;99.90;;;;;;5113920;28;20352;-89
2022/06/10 14:30:25;;;;;;;;;;;16.50;99.90;;;;;;5097301;28;19961;-89
2022/06/10 14:32:53;;;;;;;;;;;16.50;99.90;;;;;;5113854;28;19931;-82
2022/06/10 14:35:29;;;;;;;;;;;16.60;99.90;;;;;;5113492;28;19912;-80
2022/06/10 14:38:18;;;;;;;;;;;16.70;99.90;;;;;;5112952;28;20025;-81
2022/06/10 14:41:17;;;;;;;;;;;16.70;99.90;;;;;;5114174;28;20003;-87
2022/06/10 14:44:01;;;;;;;;;;;16.40;99.90;;;;;;5095174;28;19908;-87